Time;durP1;ratioP1;P1;durP2;ratioP2;P2;SDS_P1;SDS_P2;PMS_P1;PMS_P2;Temp;Humidity;BMP_temperature;BMP_pressure;BME280_temperature;BME280_humidity;BME280_pressure;Samples;Min_cycle;Max_cycle;Signal;HPM_P1;HPM_P2
2023/04/27 00:01:12;;;;;;;8.75;3.47;;;;;;;7.51;59.24;100414.16;5097684;28;20051;-44
2023/04/27 00:03:39;;;;;;;12.02;3.03;;;;;;;7.50;59.24;100409.84;5097803;28;20044;-45
2023/04/27 00:06:07;;;;;;;9.55;3.70;;;;;;;7.45;59.61;100405.50;5101854;28;20051;-46
2023/04/27 00:08:34;;;;;;;7.70;3.30;;;;;;;7.46;58.95;100409.78;5101793;28;20047;-44
2023/04/27 00:11:01;;;;;;;10.95;3.55;;;;;;;7.45;59.70;100405.50;5105515;28;20047;-40
2023/04/27 00:13:28;;;;;;;9.20;3.75;;;;;;;7.44;59.74;100403.72;5094470;28;20041;-46
2023/04/27 00:15:54;;;;;;;9.95;3.25;;;;;;;7.43;59.25;100396.84;5088192;28;20071;-43
2023/04/27 00:18:21;;;;;;;7.05;3.53;;;;;;;7.44;58.52;100402.88;5080763;28;20085;-43
2023/04/27 00:20:48;;;;;;;11.90;3.42;;;;;;;7.44;58.59;100397.72;5091765;28;20166;-41
2023/04/27 00:23:15;;;;;;;7.65;3.20;;;;;;;7.45;59.65;100402.91;5081315;28;20815;-43
2023/04/27 00:25:41;;;;;;;12.32;3.08;;;;;;;7.45;58.94;100395.19;5097157;28;20055;-43
2023/04/27 00:28:08;;;;;;;9.40;4.10;;;;;;;7.46;59.85;100399.47;5105297;28;20059;-44
2023/04/27 00:30:35;;;;;;;9.00;3.75;;;;;;;7.46;59.11;100391.75;5105292;28;20074;-45
2023/04/27 00:33:01;;;;;;;8.10;3.42;;;;;;;7.46;58.88;100391.75;5103450;28;20572;-43
2023/04/27 00:35:28;;;;;;;8.68;3.53;;;;;;;7.42;59.37;100374.50;5101690;28;20039;-42
2023/04/27 00:37:55;;;;;;;12.02;3.60;;;;;;;7.41;59.19;100383.09;5090288;28;20399;-44
2023/04/27 00:40:21;;;;;;;9.75;3.75;;;;;;;7.39;59.13;100371.88;5099067;28;20079;-41
2023/04/27 00:42:48;;;;;;;9.80;2.92;;;;;;;7.35;59.23;100372.69;5099986;28;20536;-42
2023/04/27 00:45:14;;;;;;;9.65;4.00;;;;;;;7.33;59.11;100361.50;5096045;28;20059;-44
2023/04/27 00:47:42;;;;;;;7.47;3.60;;;;;;;7.29;59.09;100367.41;5095098;28;20047;-44
2023/04/27 00:50:09;;;;;;;11.07;3.55;;;;;;;7.25;60.15;100357.91;5100897;28;20052;-44
2023/04/27 00:52:36;;;;;;;9.13;3.80;;;;;;;7.23;58.81;100362.19;5103767;28;20128;-42
2023/04/27 00:55:03;;;;;;;8.95;3.42;;;;;;;7.19;59.25;100367.28;5079670;28;20086;-42
2023/04/27 00:57:32;;;;;;;10.35;3.53;;;;;;;7.14;59.47;100358.63;5097459;28;20048;-43
2023/04/27 01:00:00;;;;;;;10.57;3.65;;;;;;;7.12;59.79;100357.72;5082208;28;20055;-43
2023/04/27 01:02:27;;;;;;;9.35;3.58;;;;;;;7.09;59.58;100355.06;5095939;28;20056;-42
2023/04/27 01:04:54;;;;;;;7.78;2.90;;;;;;;7.06;60.20;100344.75;5103512;28;20153;-40
2023/04/27 01:07:25;;;;;;;11.48;3.83;;;;;;;7.02;59.62;100348.09;5101819;28;20047;-42
2023/04/27 01:09:52;;;;;;;12.52;3.70;;;;;;;7.00;59.96;100348.09;5086387;28;20043;-41
2023/04/27 01:12:19;;;;;;;10.15;3.90;;;;;;;6.98;60.24;100342.03;5100963;28;20051;-42
2023/04/27 01:14:45;;;;;;;10.75;4.43;;;;;;;6.96;60.90;100335.13;5104992;27;20133;-41
2023/04/27 01:17:13;;;;;;;7.68;3.33;;;;;;;6.90;60.37;100339.34;5102744;28;20495;-44
2023/04/27 01:19:40;;;;;;;10.50;3.65;;;;;;;6.91;61.15;100341.06;5100588;28;20043;-44
2023/04/27 01:22:06;;;;;;;8.77;4.00;;;;;;;6.89;60.79;100342.75;5099453;28;20039;-44
2023/04/27 01:24:33;;;;;;;8.07;3.80;;;;;;;6.86;60.40;100341.84;5100274;28;20044;-40
2023/04/27 01:27:00;;;;;;;10.02;3.45;;;;;;;6.84;60.16;100343.50;5103607;28;20075;-43
2023/04/27 01:29:27;;;;;;;11.18;4.25;;;;;;;6.81;60.24;100344.31;5105884;28;20089;-40
2023/04/27 01:31:53;;;;;;;7.25;3.00;;;;;;;6.79;60.79;100351.16;5107876;27;20105;-42
2023/04/27 01:34:20;;;;;;;10.93;3.42;;;;;;;6.78;61.00;100357.13;5101068;28;20127;-44
2023/04/27 01:36:47;;;;;;;9.13;3.72;;;;;;;6.77;60.33;100351.13;5103640;28;20450;-41
2023/04/27 01:39:14;;;;;;;12.25;3.75;;;;;;;6.77;59.95;100357.97;5102462;27;20149;-41
2023/04/27 01:41:40;;;;;;;12.00;4.43;;;;;;;6.75;61.20;100362.25;5101611;28;20039;-42
2023/04/27 01:44:07;;;;;;;10.82;4.10;;;;;;;6.75;60.11;100367.41;5100232;28;20051;-43
2023/04/27 01:46:34;;;;;;;9.27;3.47;;;;;;;6.73;59.90;100361.34;5098236;28;20048;-42
2023/04/27 01:49:00;;;;;;;9.52;3.75;;;;;;;6.74;61.33;100366.53;5103884;27;20046;-42
2023/04/27 01:51:27;;;;;;;9.52;3.92;;;;;;;6.74;60.85;100363.06;5104012;28;20047;-43
2023/04/27 01:53:54;;;;;;;10.50;3.60;;;;;;;6.73;60.79;100369.06;5099801;28;20044;-42
2023/04/27 01:56:20;;;;;;;12.88;4.88;;;;;;;6.72;60.49;100368.19;5102469;27;20480;-44
2023/04/27 01:58:47;;;;;;;10.65;4.20;;;;;;;6.69;61.05;100371.56;5099727;27;20048;-43
2023/04/27 02:01:14;;;;;;;9.52;4.15;;;;;;;6.66;61.81;100368.94;5100508;27;20040;-43
2023/04/27 02:03:41;;;;;;;9.93;4.18;;;;;;;6.65;61.42;100374.06;5098719;28;20048;-44
2023/04/27 02:06:08;;;;;;;11.50;4.55;;;;;;;6.62;61.26;100369.72;5098214;27;20126;-42
2023/04/27 02:08:35;;;;;;;9.13;3.90;;;;;;;6.60;62.19;100371.41;5100931;28;20047;-43
2023/04/27 02:11:01;;;;;;;9.90;3.83;;;;;;;6.59;61.77;100377.41;5098051;27;20056;-40
2023/04/27 02:13:28;;;;;;;9.55;3.47;;;;;;;6.58;63.33;100377.38;5085148;28;20043;-46
2023/04/27 02:15:55;;;;;;;9.52;3.90;;;;;;;6.59;61.45;100369.69;5098568;27;20063;-42
2023/04/27 02:18:21;;;;;;;12.88;3.90;;;;;;;6.57;63.28;100368.78;5104023;28;20078;-40
2023/04/27 02:20:48;;;;;;;10.88;4.88;;;;;;;6.57;62.21;100376.50;5075291;27;20047;-42
2023/04/27 02:23:15;;;;;;;11.68;4.00;;;;;;;6.56;62.43;100369.63;5104005;28;20077;-40
2023/04/27 02:25:45;;;;;;;11.38;4.50;;;;;;;6.57;63.11;100368.78;5094687;28;20043;-42
2023/04/27 02:28:13;;;;;;;11.10;4.63;;;;;;;6.56;62.09;100370.47;5100610;28;20043;-47
2023/04/27 02:30:40;;;;;;;13.00;4.28;;;;;;;6.57;62.39;100371.34;5077485;28;20068;-41
2023/04/27 02:33:06;;;;;;;10.55;4.35;;;;;;;6.54;62.77;100371.28;5100362;27;20059;-43
2023/04/27 02:35:33;;;;;;;11.80;4.05;;;;;;;6.54;62.32;100366.13;5098725;27;20047;-43
2023/04/27 02:38:00;;;;;;;10.25;4.50;;;;;;;6.51;63.04;100366.06;5099086;27;20100;-42
2023/04/27 02:40:26;;;;;;;11.48;4.05;;;;;;;6.48;63.20;100355.75;5106014;28;20133;-45
2023/04/27 02:42:53;;;;;;;12.13;4.00;;;;;;;6.49;62.67;100360.06;5105135;28;20078;-41
2023/04/27 02:45:19;;;;;;;12.55;4.28;;;;;;;6.48;63.02;100366.03;5101715;28;20090;-43
2023/04/27 02:47:46;;;;;;;12.50;4.35;;;;;;;6.48;63.71;100366.03;5104106;28;20043;-43
2023/04/27 02:50:13;;;;;;;13.13;4.80;;;;;;;6.48;63.01;100360.91;5094749;28;20043;-44
2023/04/27 02:52:39;;;;;;;10.35;3.97;;;;;;;6.49;63.83;100353.19;5078262;28;20436;-46
2023/04/27 02:55:06;;;;;;;13.30;4.28;;;;;;;6.48;63.99;100356.59;5102519;27;20449;-43
2023/04/27 02:57:33;;;;;;;12.18;4.43;;;;;;;6.45;62.39;100350.53;5104659;28;20082;-43
2023/04/27 02:59:59;;;;;;;11.38;5.13;;;;;;;6.42;62.77;100347.06;5105824;27;20138;-45
2023/04/27 03:02:29;;;;;;;11.13;4.57;;;;;;;6.41;63.82;100347.91;5095876;28;20051;-44
2023/04/27 03:04:56;;;;;;;14.80;5.38;;;;;;;6.40;63.23;100348.75;5085553;28;20052;-44
2023/04/27 03:07:23;;;;;;;12.27;5.03;;;;;;;6.41;62.52;100345.31;5097307;28;20552;-45
2023/04/27 03:09:49;;;;;;;10.93;5.03;;;;;;;6.45;63.92;100353.09;5094769;28;20605;-45
2023/04/27 03:12:16;;;;;;;12.30;4.85;;;;;;;6.46;62.72;100349.69;5087756;28;20048;-46
2023/04/27 03:14:42;;;;;;;13.30;5.00;;;;;;;6.47;63.12;100346.28;5084077;28;20060;-44
2023/04/27 03:17:09;;;;;;;16.55;5.43;;;;;;;6.50;62.75;100351.47;5097552;28;20044;-42
2023/04/27 03:19:36;;;;;;;11.52;4.50;;;;;;;6.51;63.85;100353.22;5106159;27;20084;-41
2023/04/27 03:22:02;;;;;;;16.60;4.55;;;;;;;6.52;62.66;100354.97;5100138;28;20078;-42
2023/04/27 03:24:29;;;;;;;12.10;4.85;;;;;;;6.53;62.58;100351.53;5096147;28;20080;-44
2023/04/27 03:26:56;;;;;;;12.80;5.00;;;;;;;6.55;62.64;100347.28;5093438;28;20051;-42
2023/04/27 03:29:22;;;;;;;14.93;5.32;;;;;;;6.55;63.34;100345.59;5106694;27;20079;-43
2023/04/27 03:31:49;;;;;;;15.35;5.10;;;;;;;6.56;63.14;100352.47;5094896;28;20063;-43
2023/04/27 03:34:16;;;;;;;13.90;4.88;;;;;;;6.58;62.68;100346.50;5091082;28;20094;-43
2023/04/27 03:36:43;;;;;;;16.27;4.93;;;;;;;6.58;63.34;100341.34;5095765;28;20447;-42
2023/04/27 03:39:09;;;;;;;11.55;4.82;;;;;;;6.58;62.93;100342.19;5102200;28;20515;-46
2023/04/27 03:41:36;;;;;;;16.55;5.68;;;;;;;6.57;61.99;100337.88;5095181;28;21756;-44
2023/04/27 03:44:03;;;;;;;15.02;4.95;;;;;;;6.57;62.46;100330.16;5095773;28;20050;-44
2023/04/27 03:46:29;;;;;;;16.95;5.47;;;;;;;6.54;63.53;100330.09;5079181;28;20138;-44
2023/04/27 03:48:56;;;;;;;15.05;5.38;;;;;;;6.52;63.66;100326.66;5099797;28;20048;-43
2023/04/27 03:51:23;;;;;;;15.23;5.20;;;;;;;6.50;62.89;100328.31;5102087;28;20108;-43
2023/04/27 03:53:49;;;;;;;12.82;4.63;;;;;;;6.50;62.76;100328.31;5098863;28;20052;-40
2023/04/27 03:56:16;;;;;;;17.23;5.15;;;;;;;6.49;62.40;100330.00;5098944;28;20105;-41
2023/04/27 03:58:43;;;;;;;12.77;4.85;;;;;;;6.50;63.05;100323.16;5098237;28;20048;-43
2023/04/27 04:01:09;;;;;;;17.75;5.20;;;;;;;6.50;62.62;100318.03;5100741;28;20079;-42
2023/04/27 04:03:36;;;;;;;14.90;5.03;;;;;;;6.48;62.90;100319.72;5105951;28;20146;-43
2023/04/27 04:06:03;;;;;;;12.35;5.20;;;;;;;6.47;62.72;100307.66;5102110;28;20043;-42
2023/04/27 04:08:31;;;;;;;12.90;5.22;;;;;;;6.46;63.96;100300.78;5104473;28;20039;-43
2023/04/27 04:10:59;;;;;;;15.77;5.60;;;;;;;6.45;63.05;100299.06;5102782;28;20040;-45
2023/04/27 04:13:25;;;;;;;13.48;5.40;;;;;;;6.41;64.05;100301.59;5101992;28;20052;-44
2023/04/27 04:16:08;;;;;;;12.50;5.07;;;;;;;6.36;63.75;100302.34;5102986;28;20067;-42
2023/04/27 04:18:36;;;;;;;16.15;4.97;;;;;;;6.36;63.12;100295.50;5084442;28;20067;-44
2023/04/27 04:21:02;;;;;;;16.67;5.25;;;;;;;6.36;62.78;100307.47;5085805;28;20052;-41
2023/04/27 04:23:29;;;;;;;15.57;5.55;;;;;;;6.34;64.24;100307.44;5099592;28;20051;-43
2023/04/27 04:25:56;;;;;;;15.93;5.72;;;;;;;6.32;63.72;100293.72;5100219;28;20040;-45
2023/04/27 04:28:23;;;;;;;15.55;6.22;;;;;;;6.31;63.64;100302.25;5101057;28;20109;-41
2023/04/27 04:30:50;;;;;;;13.20;5.85;;;;;;;6.31;62.61;100302.25;5102567;28;20048;-41
2023/04/27 04:33:17;;;;;;;11.13;4.68;;;;;;;6.32;64.04;100305.69;5100965;28;20087;-44
2023/04/27 04:35:44;;;;;;;17.85;5.53;;;;;;;6.31;63.56;100307.38;5098009;28;20097;-43
2023/04/27 04:38:10;;;;;;;14.05;5.10;;;;;;;6.28;64.12;100297.03;5105169;28;20089;-43
2023/04/27 04:40:38;;;;;;;16.30;6.20;;;;;;;6.27;62.76;100300.44;5103996;28;20047;-41
2023/04/27 04:43:05;;;;;;;16.02;5.88;;;;;;;6.25;63.03;100294.44;5103737;28;20044;-42
2023/04/27 04:45:32;;;;;;;13.90;5.65;;;;;;;6.21;64.09;100292.63;5101044;28;20036;-43
2023/04/27 04:48:00;;;;;;;12.85;5.20;;;;;;;6.17;64.06;100299.41;5103557;28;20048;-41
2023/04/27 04:50:28;;;;;;;17.35;5.82;;;;;;;6.15;63.79;100301.94;5107650;27;20057;-44
2023/04/27 04:52:55;;;;;;;14.60;5.38;;;;;;;6.11;63.81;100300.16;5084689;28;20097;-41
2023/04/27 04:55:21;;;;;;;17.63;4.55;;;;;;;6.11;63.39;100289.88;5108868;27;20560;-42
2023/04/27 04:57:48;;;;;;;12.35;5.30;;;;;;;6.09;64.38;100281.28;5099445;28;20071;-42
2023/04/27 05:00:15;;;;;;;13.50;5.63;;;;;;;6.07;64.14;100282.06;5089152;28;20109;-40
2023/04/27 05:02:41;;;;;;;14.25;4.97;;;;;;;6.07;64.00;100282.94;5094509;28;20052;-42
2023/04/27 05:05:09;;;;;;;13.60;4.78;;;;;;;6.07;63.96;100290.66;5101794;28;20540;-42
2023/04/27 05:07:35;;;;;;;16.50;5.38;;;;;;;6.07;64.57;100288.06;5099586;28;20177;-41
2023/04/27 05:10:02;;;;;;;13.52;5.38;;;;;;;6.10;63.72;100290.72;5102720;28;20043;-44
2023/04/27 05:12:29;;;;;;;12.52;4.90;;;;;;;6.11;64.67;100289.88;5107153;27;20495;-44
2023/04/27 05:14:55;;;;;;;15.77;5.47;;;;;;;6.11;64.30;100289.03;5100477;28;20380;-42
2023/04/27 05:17:22;;;;;;;17.15;5.88;;;;;;;6.11;64.61;100289.03;5084434;28;20147;-41
2023/04/27 05:19:48;;;;;;;13.63;5.90;;;;;;;6.13;64.88;100292.47;5104556;28;20039;-41
2023/04/27 05:22:15;;;;;;;13.43;5.18;;;;;;;6.15;65.01;100296.81;5109153;27;20101;-42
2023/04/27 05:24:42;;;;;;;16.38;5.40;;;;;;;6.19;64.41;100289.16;5099378;27;20430;-44
2023/04/27 05:27:08;;;;;;;15.93;5.10;;;;;;;6.23;64.39;100296.09;5092655;28;20569;-42
2023/04/27 05:29:35;;;;;;;11.63;5.35;;;;;;;6.27;63.88;100287.59;5103284;27;20556;-43
2023/04/27 05:32:02;;;;;;;17.50;5.93;;;;;;;6.31;64.68;100291.94;5099776;28;20047;-42
2023/04/27 05:34:28;;;;;;;12.65;4.63;;;;;;;6.37;64.32;100291.19;5098880;28;20131;-43
2023/04/27 05:36:55;;;;;;;13.15;5.35;;;;;;;6.45;65.34;100288.78;5102803;28;20060;-45
2023/04/27 05:39:21;;;;;;;14.38;4.95;;;;;;;6.50;65.10;100292.28;5102637;27;20162;-44
2023/04/27 05:41:48;;;;;;;14.10;4.47;;;;;;;6.53;64.48;100292.34;5106316;28;20570;-43
2023/04/27 05:44:15;;;;;;;13.48;5.22;;;;;;;6.54;63.98;100296.66;5092963;27;20048;-41
2023/04/27 05:46:42;;;;;;;16.10;4.85;;;;;;;6.55;64.39;100299.25;5106300;27;20067;-42
2023/04/27 05:49:08;;;;;;;13.32;5.32;;;;;;;6.55;65.41;100290.66;5104864;28;20059;-43
2023/04/27 05:51:37;;;;;;;14.23;5.25;;;;;;;6.55;64.08;100296.69;5102558;28;21002;-41
2023/04/27 05:54:03;;;;;;;13.73;5.15;;;;;;;6.54;65.42;100294.09;5103699;27;20039;-43
2023/04/27 05:56:30;;;;;;;12.80;4.95;;;;;;;6.49;66.01;100296.56;5107849;27;20418;-47
2023/04/27 05:58:56;;;;;;;13.23;5.15;;;;;;;6.40;66.98;100302.44;5108998;27;20581;-44
2023/04/27 06:01:25;;;;;;;14.48;5.35;;;;;;;6.35;67.31;100306.59;5108482;27;20063;-41
2023/04/27 06:03:52;;;;;;;17.77;5.30;;;;;;;6.39;66.13;100295.53;5105683;27;20059;-42
2023/04/27 06:06:18;;;;;;;12.93;4.40;;;;;;;6.40;66.46;100301.56;5101073;27;20059;-44
2023/04/27 06:08:45;;;;;;;12.40;4.32;;;;;;;6.42;67.90;100294.75;5093716;27;20043;-42
2023/04/27 06:11:12;;;;;;;14.52;4.65;;;;;;;6.46;66.57;100293.97;5091442;27;20463;-42
2023/04/27 06:13:38;;;;;;;12.27;4.60;;;;;;;6.50;66.65;100282.00;5100106;27;20055;-41
2023/04/27 06:16:05;;;;;;;12.63;5.15;;;;;;;6.59;67.49;100291.59;5095173;28;20067;-41
2023/04/27 06:18:31;;;;;;;14.05;5.15;;;;;;;6.68;67.62;100295.19;5097675;27;20651;-40
2023/04/27 06:21:00;;;;;;;17.85;4.88;;;;;;;6.75;67.46;100279.88;5092217;28;20093;-41
2023/04/27 06:23:27;;;;;;;15.38;4.70;;;;;;;6.85;66.34;100279.16;5073008;28;20048;-41
2023/04/27 06:25:54;;;;;;;11.02;3.95;;;;;;;6.94;67.08;100273.28;5090367;27;20059;-44
2023/04/27 06:28:21;;;;;;;11.07;4.75;;;;;;;6.97;67.27;100277.63;5074204;27;20105;-41
2023/04/27 06:30:47;;;;;;;16.15;4.93;;;;;;;7.01;67.21;100274.25;5086899;28;20043;-43
2023/04/27 06:33:14;;;;;;;12.85;5.20;;;;;;;7.07;66.96;100274.34;5096870;27;20051;-46
2023/04/27 06:35:41;;;;;;;11.73;4.60;;;;;;;7.13;66.41;100274.44;5090310;28;20047;-41
2023/04/27 06:38:09;;;;;;;15.73;5.03;;;;;;;7.26;67.49;100272.06;5099968;27;20046;-42
2023/04/27 06:40:36;;;;;;;11.20;4.25;;;;;;;7.34;66.87;100262.72;5099004;27;20675;-44
2023/04/27 06:43:03;;;;;;;12.93;5.25;;;;;;;7.43;67.82;100255.09;5099407;28;20134;-42
2023/04/27 06:45:30;;;;;;;14.82;6.15;;;;;;;7.55;66.78;100258.69;5098146;27;20050;-44
2023/04/27 06:47:56;;;;;;;15.85;5.25;;;;;;;7.57;67.13;100254.44;5092084;27;20044;-47
2023/04/27 06:50:23;;;;;;;14.82;5.88;;;;;;;7.65;66.97;100247.66;5092234;28;20047;-41
2023/04/27 06:52:50;;;;;;;14.95;6.50;;;;;;;7.76;68.03;100249.50;5093359;28;20092;-41
2023/04/27 06:55:16;;;;;;;12.98;5.15;;;;;;;7.81;68.21;100253.00;5094391;27;20073;-43
2023/04/27 06:57:43;;;;;;;13.98;6.43;;;;;;;7.88;67.67;100249.66;5091090;28;20500;-44
2023/04/27 07:00:12;;;;;;;17.83;6.45;;;;;;;7.97;67.98;100249.75;5085348;28;20136;-42
2023/04/27 07:02:38;;;;;;;14.73;5.97;;;;;;;8.13;68.10;100249.91;5096187;27;20054;-42
2023/04/27 07:05:05;;;;;;;14.60;5.13;;;;;;;8.28;68.30;100253.50;5091461;28;20079;-45
2023/04/27 07:07:33;;;;;;;18.58;6.15;;;;;;;8.40;67.80;100256.22;5096170;28;20046;-42
2023/04/27 07:10:00;;;;;;;13.20;5.65;;;;;;;8.62;68.03;100261.63;5092938;28;20124;-42
2023/04/27 07:12:27;;;;;;;14.57;5.22;;;;;;;8.82;67.31;100266.06;5067002;28;20129;-43
2023/04/27 07:14:53;;;;;;;14.85;5.22;;;;;;;8.86;67.37;100270.41;5068886;28;20042;-43
2023/04/27 07:17:21;;;;;;;15.57;6.60;;;;;;;8.85;67.37;100274.69;5072812;28;20087;-43
2023/04/27 07:19:48;;;;;;;14.00;4.97;;;;;;;8.79;66.73;100271.22;5071076;28;20056;-42
2023/04/27 07:22:15;;;;;;;15.25;6.45;;;;;;;8.81;67.33;100274.69;5075115;28;20655;-43
2023/04/27 07:24:41;;;;;;;19.45;7.53;;;;;;;8.84;67.24;100279.84;5098525;27;20055;-41
2023/04/27 07:27:09;;;;;;;16.17;6.05;;;;;;;8.88;66.78;100281.59;5072570;28;20454;-45
2023/04/27 07:29:36;;;;;;;14.15;5.45;;;;;;;8.85;67.03;100271.28;5072358;28;20519;-46
2023/04/27 07:32:06;;;;;;;17.85;6.60;;;;;;;8.96;67.20;100269.63;5070855;28;20499;-45
2023/04/27 07:34:33;;;;;;;17.90;5.43;;;;;;;8.96;67.02;100274.81;5081867;28;20170;-43
2023/04/27 07:37:18;;;;;;;14.95;5.78;;;;;;;9.00;66.72;100268.81;5075742;28;20043;-45
2023/04/27 07:39:46;;;;;;;16.95;5.80;;;;;;;9.15;66.66;100264.56;5083048;28;20044;-41
2023/04/27 07:42:12;;;;;;;16.08;5.97;;;;;;;9.34;66.61;100265.56;5083741;28;20044;-45
2023/04/27 07:44:39;;;;;;;19.77;6.60;;;;;;;9.46;65.92;100259.59;5081252;28;20052;-42
2023/04/27 07:47:06;;;;;;;16.05;6.45;;;;;;;9.56;65.89;100276.00;5084948;28;20040;-41
2023/04/27 07:49:34;;;;;;;14.35;6.13;;;;;;;9.80;65.84;100270.97;5083571;28;20055;-41
2023/04/27 07:52:00;;;;;;;16.65;7.47;;;;;;;9.94;64.67;100277.06;5084474;28;20103;-44
2023/04/27 07:54:27;;;;;;;12.43;5.25;;;;;;;9.96;64.46;100280.50;5081322;28;20560;-44
2023/04/27 07:56:54;;;;;;;17.20;5.93;;;;;;;10.03;64.18;100282.25;5085740;28;20047;-42
2023/04/27 07:59:20;;;;;;;14.13;6.40;;;;;;;10.15;64.05;100275.38;5097929;28;20134;-42
2023/04/27 08:01:47;;;;;;;15.32;6.53;;;;;;;10.35;63.15;100277.16;5099010;28;20074;-43
2023/04/27 08:04:14;;;;;;;13.27;6.18;;;;;;;10.35;62.47;100264.22;5094711;28;20048;-42
2023/04/27 08:06:42;;;;;;;14.18;5.50;;;;;;;10.58;62.89;100271.19;5103478;28;20147;-43
2023/04/27 08:09:09;;;;;;;21.27;7.07;;;;;;;10.52;61.39;100262.56;5093759;28;20052;-44
2023/04/27 08:11:35;;;;;;;10.20;4.35;;;;;;;10.54;60.25;100266.00;5101583;28;20059;-42
2023/04/27 08:14:02;;;;;;;10.95;5.22;;;;;;;10.56;60.60;100254.75;5097901;28;20139;-43
2023/04/27 08:16:29;;;;;;;12.02;5.25;;;;;;;10.51;61.23;100258.22;5097912;28;20098;-45
2023/04/27 08:18:55;;;;;;;17.85;7.63;;;;;;;10.62;61.71;100255.66;5108639;27;20053;-43
2023/04/27 08:21:27;;;;;;;18.25;6.32;;;;;;;10.78;61.46;100248.72;5106952;28;20054;-43
2023/04/27 08:23:53;;;;;;;12.68;5.78;;;;;;;10.91;59.67;100243.56;5102051;28;20043;-43
2023/04/27 08:26:20;;;;;;;19.38;7.55;;;;;;;10.92;60.23;100250.47;5103848;28;20130;-44
2023/04/27 08:28:51;;;;;;;11.60;5.07;;;;;;;10.86;59.60;100247.84;5105565;28;21530;-44
2023/04/27 08:31:17;;;;;;;20.00;6.88;;;;;;;10.92;60.77;100245.28;5108206;28;20510;-47
2023/04/27 08:33:44;;;;;;;20.83;8.20;;;;;;;10.95;60.45;100247.88;5106978;27;20043;-44
2023/04/27 08:36:10;;;;;;;23.73;7.03;;;;;;;10.93;59.26;100249.59;5102778;28;20176;-41
2023/04/27 08:38:37;;;;;;;13.07;5.28;;;;;;;10.95;59.63;100242.69;5106127;27;20055;-43
2023/04/27 08:41:04;;;;;;;12.52;5.18;;;;;;;10.91;59.36;100231.44;5107777;28;20055;-42
2023/04/27 08:43:48;;;;;;;15.93;6.90;;;;;;;10.76;57.91;100227.16;5105165;28;20054;-41
2023/04/27 08:46:20;;;;;;;11.10;4.53;;;;;;;10.76;58.27;100227.16;5088742;28;20040;-42
2023/04/27 08:48:51;;;;;;;12.57;5.45;;;;;;;10.78;58.43;100224.56;5108619;27;20436;-44
2023/04/27 08:51:18;;;;;;;16.90;5.75;;;;;;;10.70;58.91;100224.53;5099710;27;20043;-43
2023/04/27 08:53:50;;;;;;;15.60;5.53;;;;;;;10.66;58.64;100210.75;5087245;28;20051;-47
2023/04/27 08:56:18;;;;;;;14.55;6.15;;;;;;;10.73;59.09;100216.78;5105712;28;20052;-41
2023/04/27 08:58:45;;;;;;;16.05;5.53;;;;;;;10.83;59.94;100216.75;5099577;28;20095;-40
2023/04/27 09:01:12;;;;;;;13.90;5.50;;;;;;;10.70;59.64;100216.78;5101039;28;20056;-39
2023/04/27 09:03:38;;;;;;;17.90;6.70;;;;;;;10.73;58.96;100206.41;5101391;28;20078;-40
2023/04/27 09:06:06;;;;;;;18.20;6.18;;;;;;;10.84;60.23;100208.16;5092380;28;20055;-42
2023/04/27 09:08:50;;;;;;;13.77;5.47;;;;;;;10.89;59.43;100202.09;5104914;28;20047;-40
2023/04/27 09:11:35;;;;;;;15.68;5.65;;;;;;;10.88;58.42;100205.53;5100554;27;20523;-40
2023/04/27 09:14:14;;;;;;;13.95;6.45;;;;;;;10.85;58.29;100215.91;5083118;28;20052;-40
2023/04/27 09:16:42;;;;;;;21.17;7.00;;;;;;;10.85;58.27;100205.56;5085119;28;20129;-43
2023/04/27 09:19:09;;;;;;;8.52;3.95;;;;;;;10.90;59.38;100202.94;5085139;28;20067;-41
2023/04/27 09:21:36;;;;;;;15.57;6.78;;;;;;;10.84;58.01;100192.59;5087397;28;20494;-40
2023/04/27 09:24:11;;;;;;;13.93;5.47;;;;;;;10.87;58.93;100197.75;5084535;28;20068;-40
2023/04/27 09:26:41;;;;;;;17.27;6.93;;;;;;;10.98;59.56;100200.34;5095143;27;20047;-40
2023/04/27 09:29:08;;;;;;;10.80;5.90;;;;;;;11.02;58.20;100207.25;5093112;28;20049;-41
2023/04/27 09:31:35;;;;;;;17.60;7.53;;;;;;;10.97;57.15;100196.03;5090522;28;20067;-44
2023/04/27 09:34:03;;;;;;;21.25;6.47;;;;;;;10.91;57.38;100202.09;5083104;28;20458;-40
2023/04/27 09:36:31;;;;;;;10.75;5.60;;;;;;;10.92;57.10;100183.09;5086629;28;20051;-40
2023/04/27 09:39:03;;;;;;;15.93;6.47;;;;;;;10.95;56.42;100175.31;5078540;28;20044;-41
2023/04/27 09:41:31;;;;;;;15.40;5.43;;;;;;;10.91;56.31;100163.22;5086948;27;20125;-41
2023/04/27 09:43:59;;;;;;;12.00;5.47;;;;;;;10.95;55.70;100159.75;5109491;27;20067;-41
2023/04/27 09:46:27;;;;;;;20.17;6.15;;;;;;;10.96;55.83;100151.09;5100427;27;20142;-40
2023/04/27 09:48:55;;;;;;;15.00;5.55;;;;;;;10.95;56.17;100149.38;5107228;28;20071;-42
2023/04/27 09:51:21;;;;;;;11.25;5.05;;;;;;;11.04;56.49;100133.78;5111626;27;20058;-41
2023/04/27 09:53:52;;;;;;;15.13;6.32;;;;;;;11.12;56.58;100136.38;5108728;27;20093;-41
2023/04/27 09:56:41;;;;;;;12.05;5.60;;;;;;;11.07;57.32;100132.06;5106359;27;20040;-41
2023/04/27 10:01:53;;;;;;;10.63;5.28;;;;;;;11.17;56.41;100129.44;5057926;27;20402;-40
2023/04/27 10:07:15;;;;;;;11.68;5.13;;;;;;;11.31;56.37;100131.97;5059709;27;20384;-41
2023/04/27 10:09:46;;;;;;;10.73;5.03;;;;;;;11.44;57.54;100137.09;5027694;28;20081;-39
2023/04/27 10:14:54;;;;;;;12.60;5.65;;;;;;;11.39;52.34;100131.06;5040779;27;20408;-40
2023/04/27 10:17:36;;;;;;;11.35;4.93;;;;;;;11.29;53.80;100123.31;5048939;28;20050;-43
2023/04/27 10:20:06;;;;;;;7.80;3.35;;;;;;;11.37;54.26;100132.78;5017970;28;20058;-41
2023/04/27 10:27:54;;;;;;;14.32;4.28;;;;;;;11.09;52.58;100131.19;5055685;28;20388;-40
2023/04/27 10:30:24;;;;;;;12.07;4.10;;;;;;;11.08;53.29;100139.81;5003153;28;20046;-41
2023/04/27 10:32:53;;;;;;;;;;;;;;;11.07;54.03;100142.44;4999930;28;21050;-40
2023/04/27 10:35:21;;;;;;;8.20;3.22;;;;;;;11.05;53.63;100139.84;4999520;28;20013;-40
2023/04/27 10:37:48;;;;;;;12.82;5.07;;;;;;;11.03;53.30;100126.91;5002694;28;20128;-40
2023/04/27 10:40:16;;;;;;;15.38;5.65;;;;;;;11.13;54.27;100124.25;4997813;28;20100;-41
2023/04/27 10:42:44;;;;;;;11.60;5.35;;;;;;;11.07;53.39;100132.06;4994654;28;20055;-41
2023/04/27 10:45:12;;;;;;;10.38;4.40;;;;;;;11.10;52.96;100121.66;4998423;28;20046;-41
2023/04/27 10:47:42;;;;;;;12.40;4.88;;;;;;;11.12;54.14;100119.94;5001685;28;20050;-41
2023/04/27 10:50:12;;;;;;;10.68;6.85;;;;;;;11.15;54.08;100119.94;5012566;28;20925;-41
2023/04/27 10:52:41;;;;;;;13.48;5.10;;;;;;;11.09;53.82;100105.28;5021554;28;20054;-41
2023/04/27 10:55:17;;;;;;;11.25;5.43;;;;;;;11.12;53.63;100096.63;5020355;28;20045;-41
2023/04/27 10:57:48;;;;;;;9.13;4.40;;;;;;;11.21;53.95;100091.38;5016184;28;20052;-41
2023/04/27 11:00:22;;;;;;;8.80;4.07;;;;;;;11.31;55.19;100081.81;5020674;28;20104;-39
2023/04/27 11:02:49;;;;;;;10.13;3.92;;;;;;;11.44;54.15;100080.03;5020951;28;20073;-40
2023/04/27 11:05:19;;;;;;;7.45;3.63;;;;;;;11.37;52.76;100083.53;5018656;28;20064;-40
2023/04/27 11:07:46;;;;;;;13.70;5.78;;;;;;;11.35;51.15;100067.13;5020481;28;20049;-39
2023/04/27 11:10:16;;;;;;;8.20;3.53;;;;;;;11.36;52.38;100071.44;5019754;28;20049;-40
2023/04/27 11:12:42;;;;;;;12.52;5.38;;;;;;;11.39;52.32;100071.44;5016628;28;20399;-41
2023/04/27 11:15:10;;;;;;;11.55;4.10;;;;;;;11.39;52.05;100074.03;5023376;28;20100;-42
2023/04/27 11:17:37;;;;;;;12.75;4.38;;;;;;;11.45;52.37;100068.78;5018880;28;20046;-40
2023/04/27 11:20:07;;;;;;;12.02;5.07;;;;;;;11.37;51.28;100057.59;5021660;28;20068;-44
2023/04/27 11:22:43;;;;;;;9.95;4.82;;;;;;;11.37;52.04;100057.59;5015489;28;20054;-42
2023/04/27 11:25:11;;;;;;;11.48;4.82;;;;;;;11.46;53.16;100047.19;5022672;28;20129;-40
2023/04/27 11:27:39;;;;;;;9.73;4.38;;;;;;;11.50;52.61;100042.81;5020239;28;20046;-42
2023/04/27 11:30:18;;;;;;;11.57;5.68;;;;;;;11.52;53.48;100052.31;5013262;28;20735;-43
2023/04/27 11:32:45;;;;;;;14.07;4.70;;;;;;;11.66;53.60;100039.25;5021621;28;20069;-44
2023/04/27 11:35:12;;;;;;;10.02;4.35;;;;;;;11.63;53.35;100038.41;5021553;28;20064;-44
2023/04/27 11:37:39;;;;;;;9.45;4.30;;;;;;;11.66;53.06;100041.84;5014297;28;20061;-41
2023/04/27 11:40:07;;;;;;;10.60;4.25;;;;;;;11.70;51.64;100040.09;5006636;28;20472;-43